createdAt,value
2023-05-01T00:02:30.922Z,8.57
2023-05-01T00:05:01.711Z,8.47
2023-05-01T00:07:32.830Z,7.17
2023-05-01T00:10:03.748Z,10.73
2023-05-01T00:12:34.444Z,7.43
2023-05-01T00:15:05.288Z,10.80
2023-05-01T00:17:35.959Z,9.80
2023-05-01T00:20:08.982Z,7.93
2023-05-01T00:22:39.604Z,7.73
2023-05-01T00:25:11.588Z,7.03
2023-05-01T00:27:42.212Z,11.33
2023-05-01T00:30:14.622Z,8.90
2023-05-01T00:32:45.227Z,8.00
2023-05-01T00:35:16.765Z,7.80
2023-05-01T00:37:48.242Z,6.57
2023-05-01T00:40:19.271Z,5.80
2023-05-01T00:42:50.274Z,7.70
2023-05-01T00:45:21.497Z,9.77
2023-05-01T00:47:52.398Z,7.17
2023-05-01T00:50:23.395Z,8.30
2023-05-01T00:52:54.444Z,10.13
2023-05-01T00:55:25.563Z,8.08
2023-05-01T00:57:57.738Z,9.63
2023-05-01T01:00:29.671Z,6.97
2023-05-01T01:03:00.373Z,8.80
2023-05-01T01:05:33.824Z,9.53
2023-05-01T01:08:09.325Z,8.53
2023-05-01T01:10:43.791Z,9.33
2023-05-01T01:13:19.438Z,8.10
2023-05-01T01:15:53.587Z,10.93
2023-05-01T01:18:27.455Z,10.77
2023-05-01T01:21:01.542Z,13.77
2023-05-01T01:24:12.115Z,12.80
2023-05-01T01:27:03.940Z,10.30
2023-05-01T01:29:51.762Z,12.87
2023-05-01T01:32:34.911Z,12.57
2023-05-01T01:35:08.428Z,11.23
2023-05-01T01:37:42.829Z,11.13
2023-05-01T01:40:17.419Z,12.40
2023-05-01T01:42:52.800Z,11.67
2023-05-01T01:45:26.394Z,13.90
2023-05-01T01:47:58.295Z,11.60
2023-05-01T01:50:30.352Z,10.87
2023-05-01T01:53:03.465Z,12.23
2023-05-01T01:55:37.485Z,10.23
2023-05-01T01:58:10.947Z,9.80
2023-05-01T02:00:42.919Z,11.07
2023-05-01T02:03:14.538Z,8.43
2023-05-01T02:05:47.876Z,10.30
2023-05-01T02:08:21.423Z,12.63
2023-05-01T02:13:52.917Z,11.27
2023-05-01T02:16:26.234Z,11.30
2023-05-01T02:18:58.564Z,15.10
2023-05-01T02:21:32.247Z,12.03
2023-05-01T02:24:04.129Z,13.23
2023-05-01T02:26:38.499Z,12.33
2023-05-01T02:29:09.254Z,8.40
2023-05-01T02:31:40.127Z,10.77
2023-05-01T02:34:11.555Z,11.67
2023-05-01T02:36:42.775Z,10.70
2023-05-01T02:39:13.978Z,9.53
2023-05-01T02:41:46.162Z,10.00
2023-05-01T02:44:18.217Z,11.97
2023-05-01T02:46:50.397Z,9.33
2023-05-01T02:49:22.801Z,8.27
2023-05-01T02:51:54.060Z,8.27
2023-05-01T02:54:24.978Z,10.00
2023-05-01T02:56:58.184Z,7.13
2023-05-01T02:59:28.803Z,7.40
2023-05-01T03:01:59.996Z,6.17
2023-05-01T03:04:30.905Z,8.50
2023-05-01T03:07:01.627Z,9.58
2023-05-01T03:09:32.384Z,8.57
2023-05-01T03:12:03.877Z,9.43
2023-05-01T03:14:34.446Z,6.73
2023-05-01T03:17:05.139Z,7.10
2023-05-01T03:19:37.153Z,6.20
2023-05-01T03:22:07.798Z,8.20
2023-05-01T03:24:38.464Z,7.13
2023-05-01T03:27:09.214Z,5.47
2023-05-01T03:29:39.787Z,5.93
2023-05-01T03:32:10.422Z,5.70
2023-05-01T03:34:41.608Z,9.33
2023-05-01T03:37:12.883Z,12.63
2023-05-01T03:39:43.590Z,6.97
2023-05-01T03:42:14.285Z,6.30
2023-05-01T03:44:45.171Z,10.43
2023-05-01T03:47:16.410Z,6.27
2023-05-01T03:49:47.622Z,5.20
2023-05-01T03:52:18.694Z,4.90
2023-05-01T03:54:50.049Z,5.20
2023-05-01T03:57:23.347Z,6.17
2023-05-01T03:59:55.217Z,5.60
2023-05-01T04:02:26.345Z,6.73
2023-05-01T04:04:57.559Z,5.63
2023-05-01T04:07:28.246Z,7.47
2023-05-01T04:09:58.932Z,5.37
2023-05-01T04:12:29.756Z,5.70
2023-05-01T04:15:00.465Z,5.43
2023-05-01T04:17:31.380Z,7.17
2023-05-01T04:20:01.960Z,5.40
2023-05-01T04:22:33.616Z,6.50
2023-05-01T04:25:05.193Z,7.57
2023-05-01T04:27:35.769Z,5.87
2023-05-01T04:30:07.778Z,8.00
2023-05-01T04:32:38.561Z,6.77
2023-05-01T04:35:12.320Z,8.97
2023-05-01T04:37:43.129Z,7.00
2023-05-01T04:40:15.540Z,6.50
2023-05-01T04:42:46.316Z,6.47
2023-05-01T04:45:17.416Z,7.27
2023-05-01T04:47:48.008Z,5.83
2023-05-01T04:50:18.773Z,8.07
2023-05-01T04:52:49.499Z,5.97
2023-05-01T04:55:20.423Z,7.13
2023-05-01T04:57:51.068Z,7.73
2023-05-01T05:00:22.025Z,6.27
2023-05-01T05:02:52.755Z,7.37
2023-05-01T05:05:23.343Z,7.97
2023-05-01T05:07:53.951Z,7.63
2023-05-01T05:10:24.640Z,7.83
2023-05-01T05:12:55.379Z,7.90
2023-05-01T05:15:26.069Z,7.10
2023-05-01T05:17:56.835Z,6.73
2023-05-01T05:20:28.364Z,8.43
2023-05-01T05:22:59.252Z,7.93
2023-05-01T05:25:29.929Z,8.30
2023-05-01T05:28:00.651Z,6.57
2023-05-01T05:30:31.465Z,8.90
2023-05-01T05:33:02.194Z,7.33
2023-05-01T05:35:32.857Z,9.20
2023-05-01T05:38:03.783Z,6.60
2023-05-01T05:40:34.588Z,7.47
2023-05-01T05:43:05.331Z,7.07
2023-05-01T05:45:37.166Z,5.10
2023-05-01T05:48:08.187Z,6.43
2023-05-01T05:50:38.835Z,5.20
2023-05-01T05:53:10.236Z,6.90
2023-05-01T05:55:40.780Z,6.40
2023-05-01T06:00:53.569Z,7.60
2023-05-01T06:03:24.572Z,7.07
2023-05-01T06:08:35.736Z,8.87
2023-05-01T06:11:07.511Z,7.97
2023-05-01T06:13:38.561Z,7.03
2023-05-01T06:16:10.862Z,8.60
2023-05-01T06:18:43.762Z,12.03
2023-05-01T06:21:14.944Z,11.87
2023-05-01T06:23:45.628Z,14.50
2023-05-01T06:26:16.439Z,6.70
2023-05-01T06:28:47.163Z,8.20
2023-05-01T06:31:18.313Z,7.77
2023-05-01T06:33:49.393Z,7.27
2023-05-01T06:36:20.011Z,7.07
2023-05-01T06:38:52.378Z,6.20
2023-05-01T06:41:23.640Z,6.17
2023-05-01T06:43:54.898Z,5.27
2023-05-01T06:46:26.008Z,7.37
2023-05-01T06:48:57.263Z,7.73
2023-05-01T06:51:28.484Z,8.83
2023-05-01T06:53:59.577Z,7.07
2023-05-01T06:56:32.516Z,5.80
2023-05-01T06:59:03.841Z,6.70
2023-05-01T07:01:35.642Z,10.10
2023-05-01T07:04:06.637Z,6.10
2023-05-01T07:06:37.857Z,5.63
2023-05-01T07:09:08.948Z,6.30
2023-05-01T07:11:39.798Z,6.97
2023-05-01T07:14:10.610Z,7.07
2023-05-01T07:16:43.215Z,9.70
2023-05-01T07:19:14.258Z,9.07
2023-05-01T07:21:45.040Z,6.90
2023-05-01T07:24:17.109Z,8.30
2023-05-01T07:26:47.811Z,6.60
2023-05-01T07:29:18.890Z,7.67
2023-05-01T07:31:49.787Z,6.97
2023-05-01T07:34:21.231Z,6.73
2023-05-01T07:36:52.768Z,6.63
2023-05-01T07:39:24.389Z,6.47
2023-05-01T07:41:55.182Z,6.43
2023-05-01T07:44:26.076Z,8.40
2023-05-01T07:46:56.853Z,6.83
2023-05-01T07:49:27.643Z,8.63
2023-05-01T07:51:58.586Z,7.20
2023-05-01T07:54:29.203Z,7.53
2023-05-01T07:56:59.891Z,8.07
2023-05-01T07:59:30.990Z,6.43
2023-05-01T08:02:01.928Z,7.10
2023-05-01T08:04:32.578Z,6.43
2023-05-01T08:07:04.803Z,6.47
2023-05-01T08:09:35.520Z,7.30
2023-05-01T08:12:07.043Z,6.90
2023-05-01T08:14:40.292Z,8.37
2023-05-01T08:17:13.063Z,6.83
2023-05-01T08:19:43.878Z,7.27
2023-05-01T08:22:14.764Z,6.17
2023-05-01T08:24:45.537Z,9.23
2023-05-01T08:27:16.679Z,7.37
2023-05-01T08:29:47.461Z,7.80
2023-05-01T08:32:18.541Z,7.30
2023-05-01T08:34:49.192Z,8.57
2023-05-01T08:37:19.834Z,7.83
2023-05-01T08:39:50.955Z,8.57
2023-05-01T08:42:22.411Z,8.27
2023-05-01T08:44:55.339Z,7.73
2023-05-01T08:47:27.450Z,7.63
2023-05-01T08:49:59.525Z,8.90
2023-05-01T08:52:31.945Z,10.70
2023-05-01T08:55:03.776Z,9.87
2023-05-01T09:00:16.945Z,10.03
2023-05-01T09:02:49.633Z,8.33
2023-05-01T09:05:22.712Z,10.77
2023-05-01T09:07:53.395Z,7.40
2023-05-01T09:10:24.464Z,7.87
2023-05-01T09:12:58.891Z,8.40
2023-05-01T09:15:32.223Z,7.03
2023-05-01T09:18:04.304Z,8.03
2023-05-01T09:20:36.868Z,7.30
2023-05-01T09:23:07.708Z,9.07
2023-05-01T09:25:38.816Z,6.80
2023-05-01T09:30:46.612Z,8.90
2023-05-01T09:33:17.946Z,8.60
2023-05-01T09:35:53.471Z,7.13
2023-05-01T09:38:25.751Z,9.53
2023-05-01T09:40:59.463Z,7.47
2023-05-01T09:43:32.298Z,6.60
2023-05-01T09:46:05.964Z,8.27
2023-05-01T09:48:37.657Z,6.37
2023-05-01T09:51:24.513Z,7.33
2023-05-01T09:53:56.425Z,7.60
2023-05-01T09:56:29.050Z,7.43
2023-05-01T09:59:02.439Z,8.50
2023-05-01T10:01:44.629Z,9.47
2023-05-01T10:06:54.464Z,6.53
2023-05-01T10:09:31.170Z,6.73
2023-05-01T10:12:02.143Z,6.80
2023-05-01T10:14:34.353Z,6.27
2023-05-01T10:17:14.099Z,7.27
2023-05-01T10:22:23.311Z,6.97
2023-05-01T10:24:54.422Z,5.67
2023-05-01T10:27:27.781Z,5.70
2023-05-01T10:30:00.605Z,8.00
2023-05-01T10:32:32.467Z,6.50
2023-05-01T10:35:06.452Z,6.33
2023-05-01T10:37:42.097Z,5.70
2023-05-01T10:43:29.177Z,5.30
2023-05-01T10:46:31.507Z,7.20
2023-05-01T10:49:02.395Z,5.93
2023-05-01T10:51:33.646Z,5.73
2023-05-01T10:54:27.053Z,5.80
2023-05-01T10:57:00.117Z,6.50
2023-05-01T10:59:32.791Z,5.60
2023-05-01T11:04:53.373Z,6.63
2023-05-01T11:07:26.273Z,5.60
2023-05-01T11:09:59.344Z,5.17
2023-05-01T11:12:55.327Z,5.70
2023-05-01T11:18:07.367Z,5.43
2023-05-01T11:20:55.179Z,5.93
2023-05-01T11:23:28.183Z,6.00
2023-05-01T11:26:06.413Z,7.67
2023-05-01T11:28:38.650Z,5.83
2023-05-01T11:31:10.610Z,6.60
2023-05-01T11:33:42.391Z,5.43
2023-05-01T11:36:14.561Z,7.53
2023-05-01T11:38:53.861Z,5.80
2023-05-01T11:41:25.460Z,5.63
2023-05-01T11:43:57.437Z,5.70
2023-05-01T11:46:29.266Z,9.17
2023-05-01T11:49:03.430Z,6.00
2023-05-01T11:51:34.698Z,5.80
2023-05-01T11:54:07.336Z,6.33
2023-05-01T11:56:40.950Z,5.43
2023-05-01T12:01:51.884Z,11.37
2023-05-01T12:04:31.609Z,5.50
2023-05-01T12:07:00.642Z,4.73
2023-05-01T12:09:32.113Z,4.10
2023-05-01T12:12:03.873Z,4.43
2023-05-01T12:17:12.359Z,5.37
2023-05-01T12:19:53.063Z,5.40
2023-05-01T12:22:25.625Z,6.83
2023-05-01T12:24:57.492Z,5.03
2023-05-01T12:27:29.141Z,7.13
2023-05-01T12:30:00.236Z,4.80
2023-05-01T12:32:36.110Z,4.67
2023-05-01T12:35:17.647Z,4.57
2023-05-01T12:37:48.833Z,4.67
2023-05-01T12:40:25.396Z,5.80
2023-05-01T12:43:00.489Z,5.07
2023-05-01T12:45:32.074Z,10.33
2023-05-01T12:48:02.821Z,5.27
2023-05-01T12:50:38.504Z,7.13
2023-05-01T12:53:10.241Z,4.47
2023-05-01T12:55:51.708Z,4.80
2023-05-01T12:58:22.892Z,4.40
2023-05-01T13:00:54.826Z,3.30
2023-05-01T13:03:27.755Z,3.67
2023-05-01T13:06:17.642Z,4.47
2023-05-01T13:08:50.011Z,4.50
2023-05-01T13:11:24.878Z,3.50
2023-05-01T13:14:00.171Z,2.80
2023-05-01T13:16:33.790Z,2.80
2023-05-01T13:19:11.762Z,3.47
2023-05-01T13:21:54.745Z,3.33
2023-05-01T13:27:08.522Z,3.40
2023-05-01T13:29:46.124Z,2.87
2023-05-01T13:32:25.722Z,3.97
2023-05-01T13:35:02.472Z,3.10
2023-05-01T13:37:43.478Z,2.90
2023-05-01T13:40:22.087Z,3.17
2023-05-01T13:42:58.532Z,2.83
2023-05-01T13:45:34.395Z,3.20
2023-05-01T13:48:09.375Z,4.10
2023-05-01T13:50:43.480Z,3.30
2023-05-01T13:53:19.245Z,3.67
2023-05-01T13:55:52.089Z,8.17
2023-05-01T13:58:26.154Z,5.00
2023-05-01T14:01:02.222Z,3.83
2023-05-01T14:06:18.489Z,6.00
2023-05-01T14:08:53.290Z,4.67
2023-05-01T14:11:27.569Z,2.20
2023-05-01T14:14:01.608Z,2.23
2023-05-01T14:16:33.335Z,2.00
2023-05-01T14:19:09.360Z,3.60
2023-05-01T14:21:46.126Z,2.30
2023-05-01T14:24:20.024Z,4.93
2023-05-01T14:26:58.646Z,1.50
2023-05-01T14:29:31.618Z,6.00
2023-05-01T14:32:07.923Z,2.17
2023-05-01T14:34:41.994Z,2.20
2023-05-01T14:37:18.393Z,2.50
2023-05-01T14:39:49.345Z,2.73
2023-05-01T14:44:58.201Z,2.00
2023-05-01T14:47:29.500Z,2.70
2023-05-01T14:50:00.265Z,3.33
2023-05-01T14:52:31.376Z,1.73
2023-05-01T14:55:02.157Z,1.27
2023-05-01T14:57:32.887Z,1.60
2023-05-01T15:00:04.740Z,1.70
2023-05-01T15:05:14.449Z,2.87
2023-05-01T15:07:45.322Z,1.53
2023-05-01T15:10:16.622Z,1.63
2023-05-01T15:12:47.948Z,1.50
2023-05-01T15:15:18.914Z,1.50
2023-05-01T15:17:49.679Z,1.47
2023-05-01T15:22:58.747Z,2.07
2023-05-01T15:25:29.773Z,9.50
2023-05-01T15:28:02.452Z,1.60
2023-05-01T15:30:34.099Z,1.50
2023-05-01T15:33:05.073Z,4.30
2023-05-01T15:35:35.728Z,1.80
2023-05-01T15:38:06.360Z,3.53
2023-05-01T15:40:36.987Z,2.23
2023-05-01T15:43:08.070Z,1.50
2023-05-01T15:45:40.658Z,3.23
2023-05-01T15:48:12.176Z,2.87
2023-05-01T15:50:43.042Z,3.17
2023-05-01T15:53:13.828Z,2.23
2023-05-01T15:55:44.557Z,3.00
2023-05-01T16:00:52.140Z,1.77
2023-05-01T16:03:23.050Z,1.67
2023-05-01T16:05:55.762Z,2.40
2023-05-01T16:08:26.612Z,5.23
2023-05-01T16:10:58.415Z,2.17
2023-05-01T16:13:29.435Z,1.73
2023-05-01T16:16:00.164Z,2.47
2023-05-01T16:18:30.857Z,3.87
2023-05-01T16:21:01.686Z,2.03
2023-05-01T16:23:32.404Z,2.20
2023-05-01T16:26:03.061Z,2.03
2023-05-01T16:28:35.270Z,1.77
2023-05-01T16:31:16.036Z,2.60
2023-05-01T16:36:18.635Z,2.40
2023-05-01T16:38:49.325Z,1.53
2023-05-01T16:41:21.193Z,4.23
2023-05-01T16:43:51.976Z,1.90
2023-05-01T16:46:22.648Z,1.50
2023-05-01T16:51:30.006Z,1.97
2023-05-01T16:54:00.664Z,2.33
2023-05-01T16:56:31.319Z,3.43
2023-05-01T16:59:02.021Z,3.45
2023-05-01T17:01:32.761Z,2.70
2023-05-01T17:04:03.664Z,4.30
2023-05-01T17:06:34.499Z,2.17
2023-05-01T17:09:05.216Z,2.40
2023-05-01T17:11:35.857Z,2.23
2023-05-01T17:14:06.420Z,5.67
2023-05-01T17:16:37.238Z,2.33
2023-05-01T17:19:09.856Z,2.27
2023-05-01T17:21:41.507Z,2.30
2023-05-01T17:24:13.212Z,1.90
2023-05-01T17:26:43.978Z,2.30
2023-05-01T17:29:15.410Z,6.93
2023-05-01T17:31:47.331Z,5.13
2023-05-01T17:34:18.027Z,2.00
2023-05-01T17:36:48.710Z,2.17
2023-05-01T17:39:21.040Z,2.40
2023-05-01T17:41:52.226Z,3.53
2023-05-01T17:44:22.936Z,2.00
2023-05-01T17:46:53.695Z,5.73
2023-05-01T17:49:24.406Z,3.10
2023-05-01T17:51:55.286Z,2.63
2023-05-01T17:54:25.991Z,2.43
2023-05-01T17:56:56.664Z,3.67
2023-05-01T17:59:28.857Z,2.87
2023-05-01T18:01:59.711Z,2.60
2023-05-01T18:04:30.438Z,2.03
2023-05-01T18:07:01.091Z,2.83
2023-05-01T18:09:31.843Z,3.65
2023-05-01T18:12:02.492Z,2.67
2023-05-01T18:14:33.049Z,2.30
2023-05-01T18:17:03.886Z,1.90
2023-05-01T18:19:34.698Z,3.73
2023-05-01T18:22:05.471Z,3.40
2023-05-01T18:24:36.146Z,3.33
2023-05-01T18:27:06.942Z,5.70
2023-05-01T18:29:37.676Z,2.60
2023-05-01T18:32:12.740Z,2.03
2023-05-01T18:34:43.339Z,2.23
2023-05-01T18:37:13.897Z,2.63
2023-05-01T18:39:44.657Z,2.33
2023-05-01T18:42:15.424Z,2.67
2023-05-01T18:44:46.344Z,3.03
2023-05-01T18:47:16.951Z,5.40
2023-05-01T18:49:47.560Z,3.17
2023-05-01T18:52:18.376Z,6.97
2023-05-01T18:54:48.994Z,5.37
2023-05-01T18:57:19.606Z,4.33
2023-05-01T18:59:50.260Z,5.27
2023-05-01T19:02:21.014Z,5.10
2023-05-01T19:04:57.380Z,2.90
2023-05-01T19:07:23.970Z,2.90
2023-05-01T19:09:54.745Z,2.23
2023-05-01T19:12:26.498Z,2.50
2023-05-01T19:14:57.163Z,2.20
2023-05-01T19:17:27.950Z,2.20
2023-05-01T19:19:58.949Z,3.40
2023-05-01T19:22:29.987Z,3.00
2023-05-01T19:25:00.966Z,3.03
2023-05-01T19:27:31.934Z,11.00
2023-05-01T19:30:02.913Z,2.20
2023-05-01T19:32:34.444Z,3.00
2023-05-01T19:35:05.839Z,4.70
2023-05-01T19:37:36.965Z,2.30
2023-05-01T19:40:10.620Z,2.30
2023-05-01T19:42:41.475Z,2.47
2023-05-01T19:45:14.324Z,3.53
2023-05-01T19:47:46.195Z,3.27
2023-05-01T19:50:19.847Z,3.07
2023-05-01T19:52:50.515Z,4.43
2023-05-01T19:55:21.900Z,3.13
2023-05-01T19:57:52.788Z,2.30
2023-05-01T20:00:23.615Z,3.83
2023-05-01T20:02:55.463Z,2.80
2023-05-01T20:05:28.443Z,3.83
2023-05-01T20:08:01.109Z,3.47
2023-05-01T20:10:32.013Z,3.27
2023-05-01T20:13:04.305Z,2.53
2023-05-01T20:15:35.153Z,3.83
2023-05-01T20:18:06.233Z,3.43
2023-05-01T20:20:36.895Z,2.07
2023-05-01T20:23:14.761Z,3.93
2023-05-01T20:25:46.618Z,2.17
2023-05-01T20:28:17.829Z,5.93
2023-05-01T20:30:49.819Z,2.57
2023-05-01T20:33:20.695Z,4.60
2023-05-01T20:35:52.177Z,5.57
2023-05-01T20:38:24.387Z,3.97
2023-05-01T20:40:55.104Z,2.50
2023-05-01T20:43:25.975Z,3.67
2023-05-01T20:45:56.598Z,3.40
2023-05-01T20:48:27.819Z,3.93
2023-05-01T20:50:58.404Z,2.97
2023-05-01T20:53:29.020Z,4.40
2023-05-01T20:55:59.743Z,4.50
2023-05-01T20:58:30.612Z,5.53
2023-05-01T21:01:01.995Z,2.97
2023-05-01T21:03:33.611Z,3.13
2023-05-01T21:06:04.515Z,3.93
2023-05-01T21:08:35.886Z,3.67
2023-05-01T21:11:06.656Z,3.93
2023-05-01T21:13:37.249Z,3.77
2023-05-01T21:16:10.646Z,2.90
2023-05-01T21:18:42.306Z,4.57
2023-05-01T21:21:14.484Z,3.80
2023-05-01T21:23:48.699Z,2.83
2023-05-01T21:26:19.994Z,3.03
2023-05-01T21:28:50.744Z,3.53
2023-05-01T21:31:22.781Z,2.10
2023-05-01T21:33:53.790Z,3.77
2023-05-01T21:36:24.778Z,2.33
2023-05-01T21:38:55.483Z,3.33
2023-05-01T21:41:26.233Z,2.60
2023-05-01T21:46:34.422Z,3.30
2023-05-01T21:49:05.748Z,2.40
2023-05-01T21:51:36.423Z,2.57
2023-05-01T21:54:07.057Z,3.00
2023-05-01T21:56:37.610Z,3.03
2023-05-01T21:59:08.215Z,4.07
2023-05-01T22:01:41.317Z,3.83
2023-05-01T22:04:13.764Z,3.23
2023-05-01T22:06:44.743Z,2.83
2023-05-01T22:09:15.409Z,2.40
2023-05-01T22:11:46.298Z,4.50
2023-05-01T22:14:17.313Z,2.50
2023-05-01T22:16:47.904Z,2.30
2023-05-01T22:19:18.748Z,4.80
2023-05-01T22:21:49.529Z,4.60
2023-05-01T22:24:20.534Z,2.30
2023-05-01T22:26:51.222Z,2.43
2023-05-01T22:29:21.835Z,2.40
2023-05-01T22:31:52.706Z,2.97
2023-05-01T22:34:23.573Z,2.47
2023-05-01T22:36:54.173Z,2.10
2023-05-01T22:39:24.840Z,2.30
2023-05-01T22:41:55.906Z,2.17
2023-05-01T22:44:26.666Z,2.57
2023-05-01T22:46:58.940Z,3.13
2023-05-01T22:49:29.814Z,2.43
2023-05-01T22:52:00.666Z,2.30
2023-05-01T22:54:31.279Z,2.50
2023-05-01T22:57:01.835Z,2.50
2023-05-01T22:59:32.476Z,2.67
2023-05-01T23:02:05.204Z,3.00
2023-05-01T23:04:35.924Z,1.93
2023-05-01T23:07:06.567Z,2.50
2023-05-01T23:09:37.227Z,2.17
2023-05-01T23:14:57.789Z,2.33
2023-05-01T23:18:24.289Z,2.97
2023-05-01T23:20:55.787Z,1.90
2023-05-01T23:23:29.522Z,3.13
2023-05-01T23:26:00.215Z,4.27
2023-05-01T23:28:31.479Z,3.40
2023-05-01T23:31:03.863Z,2.13
2023-05-01T23:33:38.041Z,2.30
2023-05-01T23:36:10.646Z,2.53
2023-05-01T23:38:41.740Z,2.40
2023-05-01T23:41:13.128Z,3.10
2023-05-01T23:43:44.647Z,2.30
2023-05-01T23:46:15.758Z,1.90
2023-05-01T23:48:46.442Z,2.00
2023-05-01T23:51:18.136Z,2.43
2023-05-01T23:53:48.971Z,2.30
2023-05-01T23:56:19.829Z,2.10
2023-05-01T23:58:50.409Z,5.50
